FMEE/RUN METAR and TAF weather

Enter ICAO airport designator
Station Type Date Time Source
FMEE METAR 2021/09/28 16:30 UTC NOAA

FMEE 281630Z AUTO 12017KT 9999 FEW034 22/16 Q1021 NOSIG


Station Type Date Time Source
FMEE Decoded METAR 2021/09/28 16:30 UTC NOAA

Saint-Denis / Gillot, Reunion (FMEE) 20-53S 055-31E 25M
Sep 28, 2021 - 12:30 PM EDT / 2021.09.28 1630 UTC
Wind: from the ESE (120 degrees) at 20 MPH (17 KT):0
Visibility: greater than 7 mile(s):0
Sky conditions: mostly clear
Temperature: 71 F (22 C)
Dew Point: 60 F (16 C)
Relative Humidity: 68%
Pressure (altimeter): 30.15 in. Hg (1021 hPa)
ob: FMEE 281630Z AUTO 12017KT 9999 FEW034 22/16 Q1021 NOSIG
cycle: 16

Station Type Date Time Source
FMEE TAF 2021/09/28 12:13 UTC NOAA

TAF FMEE 281100Z 2812/2918 12018KT 9999 FEW030
TEMPO 2906/2912 10015G25KT

Example: see airport list